createdAt,value
2018-09-02T00:00:41.629Z,15.41
2018-09-02T00:03:13.579Z,15.40
2018-09-02T00:05:45.366Z,15.38
2018-09-02T00:08:15.795Z,15.29
2018-09-02T00:10:47.400Z,15.28
2018-09-02T00:13:18.251Z,15.26
2018-09-02T00:15:49.373Z,15.28
2018-09-02T00:18:20.512Z,15.30
2018-09-02T00:20:50.505Z,15.32
2018-09-02T00:23:23.332Z,15.24
2018-09-02T00:25:55.030Z,15.25
2018-09-02T00:28:25.838Z,15.18
2018-09-02T00:31:01.865Z,15.13
2018-09-02T00:33:32.370Z,15.20
2018-09-02T00:36:04.173Z,15.30
2018-09-02T00:38:35.535Z,15.28
2018-09-02T00:41:06.404Z,15.23
2018-09-02T00:43:38.245Z,15.25
2018-09-02T00:46:11.971Z,15.25
2018-09-02T00:48:43.299Z,15.21
2018-09-02T00:51:14.205Z,15.24
2018-09-02T00:53:45.204Z,15.16
2018-09-02T00:56:19.948Z,15.19
2018-09-02T00:58:50.835Z,15.14
2018-09-02T01:01:21.912Z,15.13
2018-09-02T01:03:54.334Z,15.05
2018-09-02T01:06:24.826Z,15.00
2018-09-02T01:08:55.146Z,14.92
2018-09-02T01:11:25.473Z,14.89
2018-09-02T01:16:51.728Z,14.75
2018-09-02T01:19:24.169Z,14.74
2018-09-02T01:21:57.675Z,14.67
2018-09-02T01:24:31.343Z,14.55
2018-09-02T01:27:04.722Z,14.53
2018-09-02T01:29:35.544Z,14.57
2018-09-02T01:32:06.674Z,14.51
2018-09-02T01:34:38.087Z,14.51
2018-09-02T01:37:09.767Z,14.48
2018-09-02T01:39:54.965Z,14.48
2018-09-02T01:42:28.241Z,14.47
2018-09-02T01:44:58.498Z,14.41
2018-09-02T01:47:29.099Z,14.44
2018-09-02T01:50:07.093Z,14.43
2018-09-02T01:52:37.866Z,14.48
2018-09-02T01:55:08.623Z,14.53
2018-09-02T01:57:38.956Z,14.51
2018-09-02T02:00:08.885Z,14.46
2018-09-02T02:02:39.268Z,14.53
2018-09-02T02:05:30.240Z,14.50
2018-09-02T02:08:00.075Z,14.50
2018-09-02T02:10:31.117Z,14.51
2018-09-02T02:13:03.796Z,14.48
2018-09-02T02:15:34.543Z,14.41
2018-09-02T02:18:04.528Z,14.43
2018-09-02T02:20:35.852Z,14.40
2018-09-02T02:23:08.030Z,14.40
2018-09-02T02:25:37.755Z,14.42
2018-09-02T02:28:07.702Z,14.45
2018-09-02T02:30:37.487Z,14.43
2018-09-02T02:33:15.641Z,14.42
2018-09-02T02:35:45.400Z,14.43
2018-09-02T02:38:15.246Z,14.43
2018-09-02T02:40:45.437Z,14.44
2018-09-02T02:43:15.381Z,14.45
2018-09-02T02:45:45.167Z,14.40
2018-09-02T02:48:15.249Z,14.41
2018-09-02T02:50:45.128Z,14.41
2018-09-02T02:53:14.983Z,14.49
2018-09-02T02:55:46.224Z,14.45
2018-09-02T02:58:16.686Z,14.47
2018-09-02T03:00:46.495Z,14.41
2018-09-02T03:03:16.486Z,14.41
2018-09-02T03:05:46.314Z,14.35
2018-09-02T03:08:16.480Z,14.32
2018-09-02T03:10:46.364Z,14.31
2018-09-02T03:13:16.147Z,14.30
2018-09-02T03:15:46.047Z,14.28
2018-09-02T03:18:15.980Z,14.30
2018-09-02T03:20:45.820Z,14.25
2018-09-02T03:23:16.788Z,14.26
2018-09-02T03:25:47.546Z,14.24
2018-09-02T03:28:17.593Z,14.19
2018-09-02T03:30:47.422Z,14.17
2018-09-02T03:33:17.303Z,14.17
2018-09-02T03:35:47.181Z,14.15
2018-09-02T03:38:17.475Z,14.13
2018-09-02T03:40:47.382Z,14.08
2018-09-02T03:43:17.571Z,14.04
2018-09-02T03:45:47.758Z,14.07
2018-09-02T03:48:17.539Z,14.16
2018-09-02T03:50:47.485Z,14.12
2018-09-02T03:53:19.832Z,14.04
2018-09-02T03:55:49.893Z,14.04
2018-09-02T03:58:19.607Z,14.01
2018-09-02T04:00:49.445Z,13.98
2018-09-02T04:03:19.179Z,13.99
2018-09-02T04:05:48.953Z,13.92
2018-09-02T04:08:19.255Z,13.92
2018-09-02T04:10:49.216Z,13.91
2018-09-02T04:13:19.014Z,13.86
2018-09-02T04:15:48.757Z,13.83
2018-09-02T04:18:18.597Z,13.89
2018-09-02T04:20:48.336Z,13.89
2018-09-02T04:23:18.507Z,13.86
2018-09-02T04:25:48.264Z,13.83
2018-09-02T04:28:18.226Z,13.79
2018-09-02T04:30:47.999Z,13.80
2018-09-02T04:33:18.040Z,13.79
2018-09-02T04:35:49.633Z,13.78
2018-09-02T04:38:19.395Z,13.75
2018-09-02T04:40:49.230Z,13.78
2018-09-02T04:43:19.446Z,13.78
2018-09-02T04:45:50.071Z,13.82
2018-09-02T04:48:20.535Z,13.80
2018-09-02T04:50:51.056Z,13.76
2018-09-02T04:53:21.211Z,13.77
2018-09-02T04:55:51.565Z,13.76
2018-09-02T04:58:21.804Z,13.81
2018-09-02T05:00:52.180Z,13.79
2018-09-02T05:03:22.014Z,13.81
2018-09-02T05:05:52.445Z,13.74
2018-09-02T05:08:22.282Z,13.71
2018-09-02T05:10:52.779Z,13.66
2018-09-02T05:13:23.667Z,13.61
2018-09-02T05:15:53.629Z,13.58
2018-09-02T05:18:23.554Z,13.52
2018-09-02T05:20:53.851Z,13.54
2018-09-02T05:23:23.747Z,13.54
2018-09-02T05:25:53.705Z,13.57
2018-09-02T05:28:23.425Z,13.52
2018-09-02T05:30:53.849Z,13.50
2018-09-02T05:33:23.613Z,13.49
2018-09-02T05:35:53.849Z,13.49
2018-09-02T05:38:23.743Z,13.50
2018-09-02T05:40:54.273Z,13.48
2018-09-02T05:43:24.365Z,13.50
2018-09-02T05:45:54.528Z,13.50
2018-09-02T05:48:24.843Z,13.52
2018-09-02T05:50:55.287Z,13.53
2018-09-02T05:53:25.892Z,13.63
2018-09-02T05:55:56.269Z,13.62
2018-09-02T05:58:26.879Z,13.62
2018-09-02T06:01:04.260Z,13.60
2018-09-02T06:03:35.693Z,13.67
2018-09-02T06:06:06.518Z,13.64
2018-09-02T06:08:37.063Z,13.61
2018-09-02T06:11:07.050Z,13.59
2018-09-02T06:13:37.161Z,13.59
2018-09-02T06:16:07.180Z,13.60
2018-09-02T06:18:37.844Z,13.58
2018-09-02T06:21:14.311Z,13.58
2018-09-02T06:23:44.326Z,13.56
2018-09-02T06:26:14.292Z,13.54
2018-09-02T06:28:44.132Z,13.64
2018-09-02T06:31:15.278Z,13.66
2018-09-02T06:36:29.954Z,13.77
2018-09-02T06:39:04.420Z,13.84
2018-09-02T06:45:21.296Z,13.94
2018-09-02T06:47:52.930Z,13.88
2018-09-02T06:50:22.834Z,13.90
2018-09-02T06:53:03.380Z,13.88
2018-09-02T06:56:11.412Z,13.90
2018-09-02T06:58:53.018Z,13.90
2018-09-02T07:01:25.395Z,13.93
2018-09-02T07:03:55.976Z,13.87
2018-09-02T07:06:26.161Z,13.86
2018-09-02T07:08:56.920Z,13.88
2018-09-02T07:11:27.870Z,13.87
2018-09-02T07:13:59.246Z,13.85
2018-09-02T07:19:08.973Z,13.84
2018-09-02T07:21:45.392Z,13.80
2018-09-02T07:24:29.849Z,13.74
2018-09-02T07:27:11.984Z,13.72
2018-09-02T07:29:47.882Z,13.70
2018-09-02T07:32:18.883Z,13.73
2018-09-02T07:34:52.232Z,13.76
2018-09-02T07:37:23.745Z,13.84
2018-09-02T07:39:54.805Z,13.92
2018-09-02T07:42:25.174Z,13.93
2018-09-02T07:44:55.083Z,14.03
2018-09-02T07:47:25.570Z,13.75
2018-09-02T07:49:56.492Z,14.10
2018-09-02T07:52:31.368Z,14.16
2018-09-02T07:55:02.256Z,14.22
2018-09-02T08:00:09.987Z,14.30
2018-09-02T08:02:41.633Z,14.35
2018-09-02T08:05:15.258Z,14.07
2018-09-02T08:07:56.050Z,14.45
2018-09-02T08:10:26.543Z,14.40
2018-09-02T08:12:57.521Z,14.41
2018-09-02T08:15:37.116Z,14.46
2018-09-02T08:24:11.179Z,14.31
2018-09-02T08:26:43.183Z,14.30
2018-09-02T08:29:15.197Z,14.26
2018-09-02T08:31:46.366Z,14.32
2018-09-02T08:34:30.792Z,14.25
2018-09-02T08:37:12.593Z,14.37
2018-09-02T08:39:45.823Z,14.40
2018-09-02T08:42:34.961Z,14.53
2018-09-02T08:45:16.990Z,14.70
2018-09-02T08:50:45.891Z,14.76
2018-09-02T08:56:09.823Z,14.80
2018-09-02T08:58:50.835Z,14.81
2018-09-02T09:01:21.961Z,14.79
2018-09-02T09:06:38.517Z,14.91
2018-09-02T09:09:11.410Z,14.85
2018-09-02T09:14:56.065Z,15.08
2018-09-02T09:20:13.037Z,15.32
2018-09-02T09:31:32.733Z,15.18
2018-09-02T09:34:42.925Z,15.22
2018-09-02T09:37:15.908Z,15.29
2018-09-02T09:39:53.506Z,15.30
2018-09-02T09:42:44.066Z,15.40
2018-09-02T09:45:19.222Z,15.29
2018-09-02T09:48:21.612Z,15.29
2018-09-02T09:50:53.841Z,15.33
2018-09-02T09:53:25.390Z,15.44
2018-09-02T09:56:08.431Z,15.44
2018-09-02T09:58:43.368Z,15.45
2018-09-02T10:01:24.950Z,15.53
2018-09-02T10:04:05.678Z,15.42
2018-09-02T10:06:42.201Z,15.40
2018-09-02T10:09:24.494Z,15.37
2018-09-02T10:11:58.538Z,15.33
2018-09-02T10:17:14.860Z,15.31
2018-09-02T10:19:48.033Z,15.33
2018-09-02T10:22:23.029Z,15.19
2018-09-02T10:25:00.455Z,15.19
2018-09-02T10:27:30.996Z,15.28
2018-09-02T10:30:02.506Z,15.21
2018-09-02T10:32:32.596Z,15.22
2018-09-02T10:35:19.345Z,15.19
2018-09-02T10:37:51.397Z,15.27
2018-09-02T10:40:23.289Z,15.27
2018-09-02T10:42:55.102Z,15.21
2018-09-02T10:45:27.184Z,15.26
2018-09-02T10:47:58.613Z,15.29
2018-09-02T10:50:31.954Z,15.40
2018-09-02T10:53:03.075Z,15.50
2018-09-02T10:55:34.335Z,15.53
2018-09-02T10:58:09.391Z,15.53
2018-09-02T11:00:43.936Z,15.68
2018-09-02T11:03:19.498Z,15.82
2018-09-02T11:05:55.488Z,15.97
2018-09-02T11:08:33.547Z,16.24
2018-09-02T11:11:04.145Z,16.03
2018-09-02T11:13:35.281Z,16.13
2018-09-02T11:16:11.663Z,16.14
2018-09-02T11:21:22.943Z,15.99
2018-09-02T11:24:01.196Z,15.96
2018-09-02T11:26:31.555Z,15.90
2018-09-02T11:29:02.483Z,15.82
2018-09-02T11:31:34.743Z,15.71
2018-09-02T11:34:09.618Z,15.75
2018-09-02T11:36:41.403Z,15.65
2018-09-02T11:39:14.331Z,15.64
2018-09-02T11:42:37.960Z,15.63
2018-09-02T11:45:11.594Z,15.65
2018-09-02T11:47:47.254Z,15.64
2018-09-02T11:50:28.212Z,15.73
2018-09-02T11:53:04.806Z,15.64
2018-09-02T11:55:43.858Z,15.70
2018-09-02T11:58:32.549Z,15.74
2018-09-02T12:01:17.971Z,15.69
2018-09-02T12:04:02.648Z,15.67
2018-09-02T12:06:33.667Z,15.61
2018-09-02T12:09:11.376Z,15.59
2018-09-02T12:11:44.686Z,15.59
2018-09-02T12:14:20.251Z,15.57
2018-09-02T12:19:50.382Z,15.50
2018-09-02T12:25:12.466Z,15.57
